createdAt,value
2023-05-14T00:01:28.559Z,65.94
2023-05-14T00:03:55.174Z,66.43
2023-05-14T00:06:22.106Z,67.10
2023-05-14T00:08:48.675Z,66.87
2023-05-14T00:11:16.221Z,67.08
2023-05-14T00:13:42.811Z,65.92
2023-05-14T00:16:09.729Z,66.19
2023-05-14T00:18:36.319Z,66.91
2023-05-14T00:21:03.145Z,65.90
2023-05-14T00:23:30.048Z,65.72
2023-05-14T00:25:56.752Z,66.25
2023-05-14T00:28:23.383Z,65.48
2023-05-14T00:30:50.252Z,67.09
2023-05-14T00:33:16.808Z,65.93
2023-05-14T00:35:43.530Z,66.92
2023-05-14T00:38:16.786Z,66.42
2023-05-14T00:40:45.809Z,65.96
2023-05-14T00:43:12.479Z,65.40
2023-05-14T00:45:39.203Z,65.38
2023-05-14T00:48:06.163Z,65.72
2023-05-14T00:50:34.584Z,66.87
2023-05-14T00:53:01.501Z,65.81
2023-05-14T00:55:30.445Z,65.57
2023-05-14T00:57:58.902Z,65.36
2023-05-14T01:00:26.066Z,65.41
2023-05-14T01:02:53.055Z,66.34
2023-05-14T01:05:20.225Z,66.42
2023-05-14T01:08:05.434Z,65.55
2023-05-14T01:11:06.399Z,65.50
2023-05-14T01:13:56.374Z,65.43
2023-05-14T01:16:27.879Z,65.12
2023-05-14T01:18:56.571Z,65.57
2023-05-14T01:21:44.609Z,66.17
2023-05-14T01:24:11.171Z,66.08
2023-05-14T01:26:37.963Z,65.76
2023-05-14T01:29:26.749Z,66.90
2023-05-14T01:31:56.645Z,66.17
2023-05-14T01:34:26.357Z,66.78
2023-05-14T01:36:53.747Z,66.76
2023-05-14T01:39:20.568Z,66.83
2023-05-14T01:41:48.219Z,66.75
2023-05-14T01:44:15.180Z,67.33
2023-05-14T01:46:41.790Z,66.19
2023-05-14T01:49:08.665Z,66.54
2023-05-14T01:51:35.710Z,67.11
2023-05-14T01:54:02.437Z,68.20
2023-05-14T01:56:29.249Z,68.19
2023-05-14T01:58:57.220Z,67.90
2023-05-14T02:01:25.970Z,68.15
2023-05-14T02:03:52.536Z,68.25
2023-05-14T02:06:19.483Z,68.59
2023-05-14T02:08:45.994Z,68.63
2023-05-14T02:11:12.809Z,68.49
2023-05-14T02:13:39.310Z,68.29
2023-05-14T02:16:06.230Z,68.40
2023-05-14T02:18:32.819Z,68.23
2023-05-14T02:20:59.674Z,68.44
2023-05-14T02:23:37.907Z,69.33
2023-05-14T02:26:09.715Z,69.20
2023-05-14T02:28:36.314Z,69.25
2023-05-14T02:31:03.231Z,69.08
2023-05-14T02:33:30.093Z,68.92
2023-05-14T02:35:56.952Z,68.86
2023-05-14T02:38:23.674Z,68.81
2023-05-14T02:40:50.232Z,68.93
2023-05-14T02:43:16.884Z,69.84
2023-05-14T02:45:43.761Z,69.22
2023-05-14T02:48:10.610Z,69.48
2023-05-14T02:50:37.284Z,69.83
2023-05-14T02:53:04.188Z,69.35
2023-05-14T02:55:31.102Z,69.37
2023-05-14T02:57:58.054Z,69.88
2023-05-14T03:00:25.137Z,69.88
2023-05-14T03:02:52.286Z,70.01
2023-05-14T03:05:20.093Z,69.29
2023-05-14T03:07:46.636Z,69.49
2023-05-14T03:10:13.541Z,70.02
2023-05-14T03:12:40.442Z,69.63
2023-05-14T03:15:07.538Z,70.32
2023-05-14T03:17:34.361Z,70.19
2023-05-14T03:20:01.118Z,71.02
2023-05-14T03:22:27.775Z,70.89
2023-05-14T03:24:54.585Z,70.43
2023-05-14T03:27:21.362Z,70.13
2023-05-14T03:29:47.962Z,71.07
2023-05-14T03:32:15.004Z,70.23
2023-05-14T03:34:41.845Z,70.73
2023-05-14T03:37:08.436Z,70.91
2023-05-14T03:39:35.120Z,71.28
2023-05-14T03:42:05.031Z,71.34
2023-05-14T03:44:31.921Z,71.01
2023-05-14T03:46:58.564Z,71.09
2023-05-14T03:49:25.433Z,71.26
2023-05-14T03:51:52.019Z,71.04
2023-05-14T03:54:18.765Z,71.22
2023-05-14T03:56:45.994Z,70.79
2023-05-14T03:59:13.240Z,71.90
2023-05-14T04:01:39.932Z,71.65
2023-05-14T04:04:06.761Z,71.14
2023-05-14T04:06:33.895Z,71.27
2023-05-14T04:09:01.980Z,71.58
2023-05-14T04:11:28.554Z,71.20
2023-05-14T04:13:55.711Z,70.83
2023-05-14T04:16:22.607Z,70.66
2023-05-14T04:18:49.322Z,70.53
2023-05-14T04:21:16.156Z,70.57
2023-05-14T04:23:42.966Z,70.63
2023-05-14T04:26:10.044Z,71.13
2023-05-14T04:28:36.572Z,70.12
2023-05-14T04:31:03.807Z,70.31
2023-05-14T04:33:30.576Z,70.38
2023-05-14T04:35:57.322Z,69.94
2023-05-14T04:38:24.115Z,70.25
2023-05-14T04:40:50.924Z,70.04
2023-05-14T04:43:37.007Z,70.05
2023-05-14T04:46:03.891Z,68.43
2023-05-14T04:48:30.534Z,70.79
2023-05-14T04:50:57.169Z,69.96
2023-05-14T04:53:24.242Z,68.18
2023-05-14T04:55:51.819Z,67.29
2023-05-14T04:58:18.381Z,64.86
2023-05-14T05:00:45.416Z,65.13
2023-05-14T05:03:12.636Z,65.08
2023-05-14T05:05:39.389Z,64.49
2023-05-14T05:08:06.105Z,64.44
2023-05-14T05:10:32.797Z,64.56
2023-05-14T05:12:59.409Z,64.24
2023-05-14T05:15:26.599Z,64.92
2023-05-14T05:17:53.524Z,63.28
2023-05-14T05:20:20.495Z,63.01
2023-05-14T05:22:47.293Z,64.45
2023-05-14T05:25:14.073Z,64.96
2023-05-14T05:27:40.689Z,64.02
2023-05-14T05:30:09.143Z,62.45
2023-05-14T05:32:36.144Z,60.07
2023-05-14T05:35:03.602Z,58.92
2023-05-14T05:37:30.882Z,58.45
2023-05-14T05:39:57.484Z,58.92
2023-05-14T05:42:24.500Z,59.48
2023-05-14T05:44:51.098Z,61.96
2023-05-14T05:47:17.692Z,64.23
2023-05-14T05:49:44.417Z,64.48
2023-05-14T05:52:11.055Z,61.83
2023-05-14T05:54:39.957Z,61.77
2023-05-14T05:57:06.764Z,62.72
2023-05-14T05:59:33.502Z,61.65
2023-05-14T06:02:00.242Z,63.27
2023-05-14T06:04:27.098Z,65.02
2023-05-14T06:06:54.055Z,65.23
2023-05-14T06:09:21.135Z,64.33
2023-05-14T06:11:47.699Z,64.43
2023-05-14T06:14:14.260Z,64.02
2023-05-14T06:16:40.722Z,61.51
2023-05-14T06:19:08.701Z,57.00
2023-05-14T06:21:35.516Z,56.40
2023-05-14T06:24:02.260Z,56.47
2023-05-14T06:26:28.955Z,55.07
2023-05-14T06:28:55.557Z,52.38
2023-05-14T06:31:22.256Z,50.60
2023-05-14T06:33:48.916Z,52.86
2023-05-14T06:36:15.636Z,55.50
2023-05-14T06:38:42.425Z,57.30
2023-05-14T06:41:08.959Z,57.33
2023-05-14T06:43:36.744Z,57.28
2023-05-14T06:46:03.538Z,55.91
2023-05-14T06:48:30.940Z,55.24
2023-05-14T06:50:57.828Z,52.50
2023-05-14T06:53:24.504Z,51.97
2023-05-14T06:55:51.217Z,53.08
2023-05-14T06:58:17.834Z,53.41
2023-05-14T07:00:44.465Z,53.99
2023-05-14T07:03:11.123Z,54.68
2023-05-14T07:05:37.776Z,52.63
2023-05-14T07:08:07.525Z,50.73
2023-05-14T07:10:34.317Z,49.22
2023-05-14T07:13:00.934Z,48.40
2023-05-14T07:15:27.738Z,48.18
2023-05-14T07:17:54.374Z,46.98
2023-05-14T07:20:23.950Z,47.64
2023-05-14T07:22:52.712Z,49.67
2023-05-14T07:25:19.360Z,50.39
2023-05-14T07:27:46.057Z,48.33
2023-05-14T07:30:12.873Z,47.53
2023-05-14T07:32:39.799Z,46.44
2023-05-14T07:35:07.089Z,45.47
2023-05-14T07:37:34.248Z,47.07
2023-05-14T07:40:01.011Z,50.21
2023-05-14T07:42:35.732Z,51.34
2023-05-14T07:45:04.106Z,50.87
2023-05-14T07:47:30.828Z,47.72
2023-05-14T07:49:57.814Z,45.33
2023-05-14T07:52:24.730Z,44.01
2023-05-14T07:54:52.378Z,43.13
2023-05-14T07:57:19.801Z,43.71
2023-05-14T07:59:48.045Z,43.30
2023-05-14T08:02:16.295Z,42.65
2023-05-14T08:04:43.073Z,42.77
2023-05-14T08:07:09.644Z,43.38
2023-05-14T08:09:36.292Z,42.37
2023-05-14T08:12:03.119Z,43.48
2023-05-14T08:14:29.726Z,47.30
2023-05-14T08:16:56.305Z,47.53
2023-05-14T08:19:24.964Z,47.13
2023-05-14T08:21:51.669Z,48.54
2023-05-14T08:24:19.007Z,50.26
2023-05-14T08:26:45.851Z,50.79
2023-05-14T08:29:14.652Z,50.13
2023-05-14T08:31:42.904Z,49.36
2023-05-14T08:34:09.501Z,49.58
2023-05-14T08:36:36.907Z,48.96
2023-05-14T08:39:03.553Z,49.83
2023-05-14T08:41:30.339Z,51.09
2023-05-14T08:44:06.946Z,52.83
2023-05-14T08:46:34.178Z,51.86
2023-05-14T08:49:24.206Z,50.78
2023-05-14T08:51:51.102Z,47.88
2023-05-14T08:54:18.241Z,47.64
2023-05-14T08:56:49.370Z,47.24
2023-05-14T08:59:18.322Z,45.62
2023-05-14T09:01:48.074Z,44.70
2023-05-14T09:04:21.237Z,45.24
2023-05-14T09:06:50.998Z,45.66
2023-05-14T09:09:18.350Z,48.05
2023-05-14T09:11:53.402Z,48.30
2023-05-14T09:14:22.457Z,48.52
2023-05-14T09:16:51.115Z,49.45
2023-05-14T09:19:19.346Z,49.95
2023-05-14T09:21:47.547Z,50.42
2023-05-14T09:24:22.830Z,50.87
2023-05-14T09:26:54.227Z,50.61
2023-05-14T09:29:20.954Z,50.46
2023-05-14T09:31:50.832Z,51.09
2023-05-14T09:34:43.751Z,50.31
2023-05-14T09:37:10.476Z,51.06
2023-05-14T09:39:40.483Z,49.93
2023-05-14T09:42:07.453Z,49.95
2023-05-14T09:44:36.300Z,49.86
2023-05-14T09:47:04.255Z,50.24
2023-05-14T09:49:30.981Z,50.84
2023-05-14T09:51:58.058Z,50.55
2023-05-14T09:54:26.309Z,50.20
2023-05-14T09:56:55.492Z,49.85
2023-05-14T09:59:22.613Z,49.17
2023-05-14T10:01:50.098Z,49.29
2023-05-14T10:04:17.547Z,49.13
2023-05-14T10:06:51.368Z,48.91
2023-05-14T10:09:23.098Z,50.23
2023-05-14T10:11:54.230Z,49.79
2023-05-14T10:14:24.486Z,49.13
2023-05-14T10:16:55.649Z,49.09
2023-05-14T10:19:25.222Z,48.71
2023-05-14T10:24:39.072Z,48.26
2023-05-14T10:27:06.816Z,47.90
2023-05-14T10:29:38.142Z,48.45
2023-05-14T10:32:09.819Z,48.40
2023-05-14T10:34:46.457Z,49.33
2023-05-14T10:37:19.504Z,49.06
2023-05-14T10:39:48.140Z,49.22
2023-05-14T10:42:19.175Z,48.59
2023-05-14T10:44:58.660Z,48.88
2023-05-14T10:47:32.633Z,48.25
2023-05-14T10:50:02.548Z,47.83
2023-05-14T10:52:29.935Z,48.35
2023-05-14T10:55:07.714Z,48.04
2023-05-14T10:57:37.803Z,48.71
2023-05-14T11:00:07.752Z,47.86
2023-05-14T11:02:44.513Z,48.17
2023-05-14T11:05:14.402Z,47.49
2023-05-14T11:07:45.515Z,46.98
2023-05-14T11:10:17.024Z,46.59
2023-05-14T11:12:48.559Z,47.59
2023-05-14T11:15:18.193Z,48.71
2023-05-14T11:17:46.937Z,48.07
2023-05-14T11:20:14.907Z,47.11
2023-05-14T11:22:43.369Z,45.81
2023-05-14T11:25:11.233Z,46.06
2023-05-14T11:27:39.041Z,45.81
2023-05-14T11:30:12.130Z,46.15
2023-05-14T11:32:39.122Z,45.72
2023-05-14T11:35:05.948Z,44.22
2023-05-14T11:37:32.758Z,45.38
2023-05-14T11:40:00.953Z,46.22
2023-05-14T11:42:27.938Z,45.35
2023-05-14T11:44:54.563Z,45.21
2023-05-14T11:47:22.295Z,45.22
2023-05-14T11:49:49.569Z,44.50
2023-05-14T11:52:19.712Z,45.76
2023-05-14T11:54:47.402Z,45.25
2023-05-14T11:57:21.473Z,44.72
2023-05-14T11:59:49.601Z,44.50
2023-05-14T12:02:18.653Z,44.52
2023-05-14T12:04:52.279Z,44.65
2023-05-14T12:07:19.579Z,43.83
2023-05-14T12:09:51.456Z,43.22
2023-05-14T12:12:20.760Z,43.51
2023-05-14T12:14:48.295Z,43.09
2023-05-14T12:17:22.790Z,42.83
2023-05-14T12:19:51.580Z,43.39
2023-05-14T12:22:22.786Z,42.46
2023-05-14T12:24:58.284Z,42.51
2023-05-14T12:27:27.236Z,41.85
2023-05-14T12:30:19.805Z,41.44
2023-05-14T12:32:52.760Z,41.71
2023-05-14T12:35:21.359Z,40.48
2023-05-14T12:37:48.088Z,41.25
2023-05-14T12:40:14.754Z,40.38
2023-05-14T12:42:41.509Z,40.14
2023-05-14T12:45:21.380Z,40.18
2023-05-14T12:47:48.256Z,39.89
2023-05-14T12:50:14.858Z,39.63
2023-05-14T12:52:41.475Z,39.17
2023-05-14T12:55:09.355Z,39.26
2023-05-14T12:57:37.223Z,38.34
2023-05-14T13:00:08.113Z,37.50
2023-05-14T13:02:43.093Z,37.85
2023-05-14T13:05:11.147Z,38.25
2023-05-14T13:07:38.333Z,37.50
2023-05-14T13:10:05.747Z,37.44
2023-05-14T13:12:32.710Z,37.94
2023-05-14T13:14:59.592Z,38.08
2023-05-14T13:17:26.392Z,37.17
2023-05-14T13:19:53.025Z,37.83
2023-05-14T13:22:19.599Z,36.73
2023-05-14T13:24:46.452Z,36.65
2023-05-14T13:27:13.033Z,36.78
2023-05-14T13:29:39.685Z,36.94
2023-05-14T13:32:06.552Z,37.13
2023-05-14T13:34:33.192Z,36.73
2023-05-14T13:36:59.771Z,37.43
2023-05-14T13:39:27.263Z,37.36
2023-05-14T13:41:58.680Z,36.45
2023-05-14T13:44:25.426Z,35.46
2023-05-14T13:46:52.510Z,35.15
2023-05-14T13:49:19.169Z,34.95
2023-05-14T13:51:45.781Z,35.06
2023-05-14T13:54:12.414Z,34.44
2023-05-14T13:56:39.047Z,34.11
2023-05-14T13:59:06.373Z,33.85
2023-05-14T14:01:33.094Z,33.54
2023-05-14T14:04:00.290Z,32.84
2023-05-14T14:06:29.888Z,32.23
2023-05-14T14:08:56.535Z,32.36
2023-05-14T14:11:25.419Z,32.00
2023-05-14T14:13:52.269Z,31.22
2023-05-14T14:16:19.018Z,32.05
2023-05-14T14:18:46.030Z,32.72
2023-05-14T14:21:12.851Z,32.33
2023-05-14T14:23:39.554Z,33.12
2023-05-14T14:26:06.191Z,34.79
2023-05-14T14:28:33.076Z,34.71
2023-05-14T14:30:59.979Z,34.68
2023-05-14T14:33:28.928Z,34.68
2023-05-14T14:35:56.094Z,33.81
2023-05-14T14:38:24.600Z,33.87
2023-05-14T14:40:51.410Z,32.83
2023-05-14T14:43:18.335Z,32.99
2023-05-14T14:45:47.491Z,34.76
2023-05-14T14:48:25.254Z,35.97
2023-05-14T14:50:52.720Z,34.37
2023-05-14T14:53:20.642Z,34.94
2023-05-14T14:55:48.442Z,33.51
2023-05-14T14:58:15.186Z,33.07
2023-05-14T15:00:41.948Z,32.89
2023-05-14T15:03:11.725Z,31.87
2023-05-14T15:05:38.421Z,32.61
2023-05-14T15:08:05.243Z,32.82
2023-05-14T15:10:32.825Z,33.39
2023-05-14T15:13:00.076Z,34.15
2023-05-14T15:15:26.740Z,35.31
2023-05-14T15:17:53.398Z,34.36
2023-05-14T15:20:20.093Z,33.51
2023-05-14T15:22:46.777Z,33.27
2023-05-14T15:25:13.625Z,32.07
2023-05-14T15:27:40.592Z,32.17
2023-05-14T15:30:08.075Z,34.72
2023-05-14T15:32:34.650Z,34.35
2023-05-14T15:35:01.368Z,34.74
2023-05-14T15:37:27.919Z,34.28
2023-05-14T15:39:54.504Z,34.11
2023-05-14T15:42:21.244Z,35.03
2023-05-14T15:44:47.964Z,35.69
2023-05-14T15:47:17.228Z,35.28
2023-05-14T15:49:43.945Z,35.56
2023-05-14T15:52:10.694Z,36.23
2023-05-14T15:54:37.487Z,37.56
2023-05-14T15:57:04.540Z,37.52
2023-05-14T15:59:31.117Z,37.29
2023-05-14T16:01:57.644Z,38.85
2023-05-14T16:04:24.188Z,39.86
2023-05-14T16:06:51.202Z,41.07
2023-05-14T16:09:17.835Z,40.79
2023-05-14T16:11:44.412Z,42.23
2023-05-14T16:14:11.689Z,42.51
2023-05-14T16:16:38.417Z,43.70
2023-05-14T16:19:05.245Z,43.61
2023-05-14T16:21:32.821Z,43.58
2023-05-14T16:23:59.418Z,44.41
2023-05-14T16:26:26.438Z,45.63
2023-05-14T16:28:56.284Z,46.94
2023-05-14T16:31:23.583Z,47.72
2023-05-14T16:33:50.217Z,47.58
2023-05-14T16:36:16.788Z,47.70
2023-05-14T16:38:57.147Z,47.81
2023-05-14T16:41:32.664Z,47.60
2023-05-14T16:44:01.732Z,46.80
2023-05-14T16:46:29.443Z,47.45
2023-05-14T16:48:56.533Z,48.22
2023-05-14T16:51:23.162Z,48.94
2023-05-14T16:53:49.817Z,48.62
2023-05-14T16:56:16.885Z,48.50
2023-05-14T16:58:43.486Z,49.00
2023-05-14T17:01:10.310Z,49.17
2023-05-14T17:03:36.923Z,49.09
2023-05-14T17:06:04.634Z,49.18
2023-05-14T17:08:33.558Z,50.45
2023-05-14T17:11:00.439Z,50.46
2023-05-14T17:13:27.005Z,51.46
2023-05-14T17:15:53.693Z,51.59
2023-05-14T17:18:20.473Z,51.13
2023-05-14T17:20:47.100Z,51.86
2023-05-14T17:23:13.708Z,52.54
2023-05-14T17:25:40.466Z,54.62
2023-05-14T17:28:07.150Z,53.30
2023-05-14T17:30:33.887Z,54.14
2023-05-14T17:33:00.521Z,54.08
2023-05-14T17:35:27.614Z,54.06
2023-05-14T17:37:54.394Z,54.03
2023-05-14T17:40:21.064Z,54.58
2023-05-14T17:42:47.641Z,55.51
2023-05-14T17:45:15.478Z,55.21
2023-05-14T17:47:42.277Z,55.14
2023-05-14T17:50:09.276Z,54.40
2023-05-14T17:52:36.007Z,55.49
2023-05-14T17:55:02.918Z,55.24
2023-05-14T17:57:31.563Z,55.90
2023-05-14T17:59:58.202Z,55.82
2023-05-14T18:02:24.811Z,55.60
2023-05-14T18:04:52.026Z,56.57
2023-05-14T18:07:19.193Z,55.74
2023-05-14T18:09:45.851Z,56.42
2023-05-14T18:12:12.423Z,55.81
2023-05-14T18:14:39.341Z,56.31
2023-05-14T18:17:06.411Z,57.01
2023-05-14T18:19:33.480Z,56.84
2023-05-14T18:22:00.454Z,56.99
2023-05-14T18:24:27.127Z,58.59
2023-05-14T18:26:54.656Z,57.98
2023-05-14T18:29:21.401Z,57.38
2023-05-14T18:31:48.000Z,58.25
2023-05-14T18:34:14.493Z,58.75
2023-05-14T18:36:41.157Z,60.39
2023-05-14T18:39:08.034Z,60.17
2023-05-14T18:41:34.658Z,60.78
2023-05-14T18:44:02.324Z,60.70
2023-05-14T18:46:29.201Z,60.52
2023-05-14T18:48:56.370Z,61.25
2023-05-14T18:51:23.054Z,61.34
2023-05-14T18:53:49.702Z,62.41
2023-05-14T18:56:16.357Z,62.26
2023-05-14T18:58:42.978Z,63.56
2023-05-14T19:01:09.623Z,64.07
2023-05-14T19:03:36.596Z,63.01
2023-05-14T19:06:06.138Z,63.47
2023-05-14T19:08:32.672Z,63.22
2023-05-14T19:11:02.037Z,63.41
2023-05-14T19:13:30.112Z,63.68
2023-05-14T19:15:56.794Z,63.01
2023-05-14T19:18:23.528Z,63.12
2023-05-14T19:20:50.266Z,63.50
2023-05-14T19:23:16.866Z,64.55
2023-05-14T19:25:43.583Z,64.38
2023-05-14T19:28:10.376Z,63.68
2023-05-14T19:30:36.993Z,64.84
2023-05-14T19:33:04.378Z,64.68
2023-05-14T19:35:31.553Z,64.54
2023-05-14T19:38:00.813Z,64.84
2023-05-14T19:40:40.728Z,65.15
2023-05-14T19:43:08.107Z,67.25
2023-05-14T19:45:39.240Z,66.38
2023-05-14T19:48:06.633Z,65.49
2023-05-14T19:50:34.021Z,65.47
2023-05-14T19:53:01.164Z,65.77
2023-05-14T19:55:27.790Z,65.27
2023-05-14T19:57:54.463Z,65.46
2023-05-14T20:00:22.556Z,65.37
2023-05-14T20:02:49.615Z,65.92
2023-05-14T20:05:16.594Z,66.21
2023-05-14T20:07:43.852Z,66.86
2023-05-14T20:10:10.975Z,66.74
2023-05-14T20:12:37.670Z,67.76
2023-05-14T20:15:04.892Z,66.08
2023-05-14T20:17:31.627Z,65.50
2023-05-14T20:19:58.197Z,65.61
2023-05-14T20:22:25.024Z,65.73
2023-05-14T20:24:52.518Z,66.22
2023-05-14T20:27:19.181Z,66.36
2023-05-14T20:29:46.696Z,67.65
2023-05-14T20:32:13.385Z,67.78
2023-05-14T20:34:39.891Z,67.37
2023-05-14T20:37:07.964Z,67.21
2023-05-14T20:39:34.731Z,66.87
2023-05-14T20:42:01.576Z,67.50
2023-05-14T20:44:28.049Z,66.57
2023-05-14T20:46:54.736Z,66.58
2023-05-14T20:49:21.326Z,67.40
2023-05-14T20:51:48.505Z,67.93
2023-05-14T20:54:15.492Z,67.53
2023-05-14T20:56:42.396Z,67.98
2023-05-14T20:59:09.131Z,67.95
2023-05-14T21:01:35.761Z,67.91
2023-05-14T21:04:02.505Z,68.01
2023-05-14T21:06:29.221Z,67.83
2023-05-14T21:08:55.833Z,67.67
2023-05-14T21:11:23.104Z,67.71
2023-05-14T21:13:49.666Z,68.82
2023-05-14T21:16:16.404Z,67.77
2023-05-14T21:18:43.209Z,67.39
2023-05-14T21:21:09.894Z,67.39
2023-05-14T21:23:36.521Z,68.23
2023-05-14T21:26:03.174Z,67.86
2023-05-14T21:28:30.221Z,67.84
2023-05-14T21:30:56.942Z,67.70
2023-05-14T21:33:23.971Z,67.18
2023-05-14T21:35:50.597Z,67.49
2023-05-14T21:38:17.489Z,67.55
2023-05-14T21:40:44.266Z,67.40
2023-05-14T21:43:10.861Z,67.84
2023-05-14T21:45:37.549Z,67.54
2023-05-14T21:48:04.377Z,68.29
2023-05-14T21:50:31.069Z,67.58
2023-05-14T21:52:57.711Z,67.51
2023-05-14T21:55:24.688Z,67.77
2023-05-14T21:57:51.899Z,68.26
2023-05-14T22:00:23.348Z,68.62
2023-05-14T22:02:51.857Z,67.70
2023-05-14T22:05:19.190Z,67.39
2023-05-14T22:07:46.110Z,67.08
2023-05-14T22:10:14.203Z,67.77
2023-05-14T22:12:41.691Z,67.79
2023-05-14T22:15:12.361Z,67.62
2023-05-14T22:17:39.214Z,68.42
2023-05-14T22:20:07.729Z,67.24
2023-05-14T22:22:34.316Z,67.56
2023-05-14T22:25:01.016Z,67.99
2023-05-14T22:27:27.840Z,67.59
2023-05-14T22:29:55.197Z,67.62
2023-05-14T22:32:21.898Z,67.46
2023-05-14T22:34:48.637Z,67.76
2023-05-14T22:37:15.619Z,66.93
2023-05-14T22:39:42.580Z,68.00
2023-05-14T22:42:09.325Z,67.63
2023-05-14T22:44:37.010Z,67.93
2023-05-14T22:47:07.316Z,68.50
2023-05-14T22:49:33.966Z,67.10
2023-05-14T22:52:00.835Z,66.90
2023-05-14T22:54:27.382Z,67.08
2023-05-14T22:56:54.306Z,66.43
2023-05-14T22:59:22.888Z,66.74
2023-05-14T23:01:50.529Z,67.15
2023-05-14T23:04:17.371Z,66.63
2023-05-14T23:06:44.469Z,66.35
2023-05-14T23:09:11.029Z,66.01
2023-05-14T23:11:37.918Z,66.01
2023-05-14T23:14:04.407Z,66.46
2023-05-14T23:16:31.951Z,66.49
2023-05-14T23:18:58.732Z,66.50
2023-05-14T23:21:25.543Z,66.83
2023-05-14T23:23:52.099Z,67.44
2023-05-14T23:26:18.692Z,67.28
2023-05-14T23:28:47.210Z,67.29
2023-05-14T23:31:14.032Z,66.65
2023-05-14T23:33:40.715Z,66.02
2023-05-14T23:36:07.995Z,66.26
2023-05-14T23:38:34.717Z,66.82
2023-05-14T23:41:01.344Z,66.50
2023-05-14T23:43:28.121Z,66.89
2023-05-14T23:45:54.887Z,67.85
2023-05-14T23:48:21.437Z,67.16
2023-05-14T23:50:48.264Z,68.18
2023-05-14T23:53:15.038Z,67.29
2023-05-14T23:55:41.713Z,67.16
2023-05-14T23:58:08.432Z,66.88
